Timeline UpdatesTrip UpdatesNews PostsPvt PostsTravel TipsAdmin PostsConv PostsFollowed PostsChat RequestsBlog PostsPNR Posts

Disclaimer
Search
 
 
Tue Jul 29, 2014 16:14:00 ISTHomeTrainsΣChainsAtlasPNRForumGalleryNewsFAQTripsMembersLoginFeedback
No Recent News for this Train
Other Trains in the News **new
Latest...
-
Tue May 27, 2014 (05:22PM)
⇐ Return Journey: Train# 16381

16382/Jayanti Janta Express

Jun 04 2014 (12:24AM)
Change Departure Station:
Change Arrival Station:
Post a Train Travel TipPost a Train Travel Tip **new
Post a Comment/Question/Picture/VideoPost a Comment/Question/Picture/Video
Pantry/Catering
✓ Pantry Car Avbl
✓ Catering Avbl
RSA - Rake Sharing
Rake/Coach Composition
CC : SLR- UR- S1- S2- S3- S4- PC- S5- S6- S7- S8- S9- S10- B1- A1- UR- SLRD = 17 Coaches.; jayarajcharan Entry# 674599 ; .; S9 & S10 De-reserved from CAPE to CBE,;
Loco
CAPE-GTL: RPM/ED WAP4 / AJJ WAM-4 / WAP-1 GTL-PUNE: GY WDM...
Read more...
3A/3D/WDG-3A PUNE-CSTM: KYN WCAM 2P /3
News    PNR    Forum    Time-Table    Availability    Fare Chart    Map    Arr/Dep History    Trips    Gallery    ΣChains    X/O    Timeline    
Travel Time: 8h 30m    8 halts    Distance: 455 km    Avg Speed: 53 km/hr
Type: Mail/Express
Zone: SR/Southern
Departs @ 20:20 (Avg 39m late)
Platform# 4
SMTWTFS
Solapur/SUR 
Arrives @ 04:50 +1 night (Avg 2m late)
Platform# 11
SMTWTFS
Mumbai CST/CSTM 

8 halts. 95 intermediate Stations between Solapur and Mumbai CST

Show ALL intermediate Stations  Show Old Time-Table

#CodeStation NameX/OArrivesAvgDepartsAvgHaltPFDay#KmSpeedElevZoneAddress
1CAPEKanniyakumari (3)  -05:45+011-1678.34738mSRKanyakumari, Tamil Nadu
2NCJNagercoil Junction (4)  06:05+106:10+25m11-1662.85822mSRNagercoil-629002, Tamil Nadu
3ERLEraniel  06:29+206:30+41m--1-1644.66819mSRKanyakumari, Tamil Nadu
4KZTKulitturai  06:43+706:45+72m--1-1629.77429mSRMarthandam, Tamil Nadu
5PASAParassala  06:53+1006:54+111m--1-1619.83445mSRParassala, Kerala
6NYYNeyyattinkaraX  07:13+807:15+182m--1-1609.02611mSRThiruvananthapuram, Kerala
7TVCTrivandrum Central (5)  07:55+808:05+710m21-1591.88212mSRThiruvananthapuram 695001, Kerala
8CRYChirayinkeezhu (2)X  08:26+1208:27+121m--1-1563.04619mSRChirayinkeezhu, Kerala
9KVUKadakavur (3)  08:31+1408:32+151m--1-1559.95520mSRKadakkavoor, Kerala
10VAKVarkala Sivagiri (3)X  08:42+1508:44+152m--1-1550.86152mSREdava Kappil Road, Kerala
11PVUParavur (3)X  08:55+1708:56+191m--1-1539.53118mSRParavoor, Kerala
12QLNKollam Junction (6)X  09:20+1509:25+155m21-1527.19016mSRKollam 0474-2746194, Kerala
13KPYKarunagappalli (2)  09:43+2709:45+282m11-1500.04612mSRKollam Dist, Kerala
14KYJKayamkulam Junction (5)  10:03+2710:05+282m--1-1486.35111mSRAlappuzha Ph;0479-2442042, Kerala
15MVLKMavelikara (3)X  10:14+3010:15+351m21-1478.73113mSRMavelikkara Ph: 0479-2302249, Kerala
16CNGRChengannur (3)  10:39+2310:40+271m31-1466.1606mSRPh: 0479-2452340, Kerala
17TRVLTiruvalla (2)O  10:49+3010:50+341m21-1457.05927mSRPh: 0469-2601314, Kerala
18CGYChanganassery (3)XO  10:58+3611:00+412m--1-1449.22411mSRPh: 0481- 2420108, Kerala
19KTYMKottayam (3)X  11:45+2711:50+345m11-1431.33815mSRTel: 0481 2563535, Kerala
20ERNErnakulam Town (North) (2)X  13:25+1713:30+205m11-1371.4509mSRTel: 0484 2395198, Kerala
21AWYAluva (3)X  13:50+2213:53+223m--1-1354.65512mSRPh: 0484-2624141, Kerala
22AFKAngamaly for Kalady (3)  14:03+2314:05+222m--1-1345.37016mSRPhone: 0484-2452340, Kerala
23CKIChalakkudy (3)X  14:18+2414:20+242m21-1330.1489mSRPh: 0480- 2701368, Kerala
24IJKIrinjalakkuda (2)X  14:28+2514:30+242m--1-1323.75318mSRKalletumkara, Kerala
25TCRThrissur (4)X  14:57+2015:00+203m21-1299.9526mSRThrissur Tel: 0487 2423150, Kerala
26WKIWadakkanchery (2)X  15:19+2015:20+211m21-1283.53540mSRWadackanchery, Kerala
27OTPOttappalam (2)  16:08+1416:10+142m11-1255.96430mSROttapalam, Kerala
28PGTPalakkad Junction (4)  16:40+1116:45+135m31-1224.14484mSRPalghat Tel: 0491 2555231, Kerala
29CBECoimbatore Main Junction (6)  18:00+618:05+95m41-1168.870416mSRCoimbatore 641001, Tamil Nadu
30TUPTiruppur (2)X  18:48+1518:50+152m21-1118.350305mSRTiruppur. Ph:0421-2200450, Tamil Nadu
31EDErode Junction (4)  19:50+720:00+1510m11-1068.167175mSRErode ph.no: 0424-2256111, Tamil Nadu
32SASalem Junction (6)X  20:55+1721:00+185m41-1006.853283mSRSalem, Tamil Nadu
33JTJJolarpettai Junction (5)X  23:15+823:20+115m--1-886.659405mSRJolarpettai, Tamil Nadu
34KPDKatpadi Junction (5)  00:45+500:50+125m42-802.743213mSRVellore 632007, Tamil Nadu
35PAKPakala Junction (3)X  02:19+2002:20+211m12-739.634371mSCRKavalivari Palle, Andhra Pradesh
36TPTYTirupati Main (5)X  03:35+203:40+35m12-697.830150mSCRChittoor Distt, Andhra Pradesh
37RURenigunta Junction (5)  04:00+604:20+2120m22-687.885113mSCRChittoor District, Andhra Pradesh
38KOUKoduru (2)  04:49+3504:50+361m--2-647.072215mSCRKadapa (YSR District), Andhra Pradesh
39RJPRazampeta (2)X  05:18+3505:20+352m--2-613.435144mSCRKadapa (YSR District), Andhra Pradesh
40NRENandalur  05:38+3205:40+332m--2-602.951143mSCRRayalaseema Region, Andhra Pradesh
41HXKadapa (3)  06:28+2306:30+272m32-562.362146mSCRCuddapah, Andhra Pradesh
42YAYerraguntla (2)  07:08+2607:10+262m12-523.335171mSCRKadapa / Cuddapah (YSR District), Andhra Pradesh
43KDPKondapuram (2)  08:18+508:20+142m--2-483.473214mSCRKadapa (YSR District), Andhra Pradesh
44TUTadipatri (3)X08:43+2008:45+202m22-455.440243mSCRAnantapuram Dist, Andhra Pradesh
45GYGooty Junction (2)  09:58+1110:00+202m22-407.331370mSCRNH 7 Anantapur District, Andhra Pradesh
46GTLGuntakal Junction (6)X10:55+811:15+1520m52-378.792453mSCRGuntakal. Tel: 08552-227131/32, Andhra Pradesh
47ADAdoni (4)  11:49+3411:50+371m32-326.743420mSCRAdoni Tel: 08512-252368, Andhra Pradesh
48MALMMantralayam Road (3)  12:48+3212:50+472m22-285.436335mSCRKurnool Tel: 08512-259830, Andhra Pradesh
49RCRaichur Junction (3)  13:38+3313:40+552m22-257.073406mSCRRaichur, Karnataka
50YGYadgir (3)  14:36+1:1414:38+1:372m22-188.513369mSCRYadgir, Karnataka
51WADIWadi Junction (4)X  17:35-317:40+95m42-149.463431mCRWadi, Karnataka
52GRGulbarga (4)  18:15+818:18+133m32-112.660458mCRGulbarga 585101, Karnataka
53SUR»Solapur (5)»X  20:10+3420:20+3910m420.057461mCRSolapur 413001, Maharashtra
54KWVKurduvadi Junction (4)X  21:43+2121:45+212m2279.072516mCRKurduvadi Dist-Solapur, Maharashtra
55DDDaund Junction (7)XO  23:15+1723:20+155m52186.960521mCRNew Daund Dist. Pune 413801, Maharashtra
56PUNEPune Junction (6)X00:35+1000:50+1615m43262.560556mCRPune 411001, Maharashtra
57LNLLonavala (3)XO  01:54+801:55+111m23326.235623mCRLonavala 410401, Maharashtra
58KJTKarjat Junction (4)  02:44+802:45+101m23354.86257mCRKarjat, Maharashtra
59KYNKalyan Junction (8)  03:30+703:35+75m73401.77110mCRKalyan 421301, Maharashtra
60TNAThane (10)  03:52+1403:55+153m63421.94810mCRThane, Maharashtra
61DRMumbai Dadar Central (8)  04:25+604:30+85m53446.1267mCRMumbai 400014, Maharashtra
62CSTM•Mumbai CST (18)•  04:50+2-113454.7-10mCRMumbai 400001, Maharashtra
Scroll to Top
Scroll to Bottom